Flag Island, Minnesota
Current Conditions -  °F | °C
As of 5:14 PM on Thursday 27 Nov 2014 (Local Time) from KFGN Reporting Station
Clear Clear  
Wind Chill: -15°   Ceiling: Unl
Heat Index:   Visibility: 10mi
Dew Point: -6°   Wind: 8mph
Humidity: 78%   Direction: 150°SSE
Pressure: 30.26"   Gusts: NA
Location:  49.32°N, 94.9°W
Report Text: KFGN 272314Z AUTO 15007KT 10SM CLR M18/M21 A3026 RMK AO2
Loading
Personal Weather Stations






























Interactive Weather Map New forecast layout! Learn more

10-Day Weather Forecast

Advertisements
Track Severe Weather on mobile